sensor_id;sensor_type;location;lat;lon;timestamp;temperature;humidity
17027;DHT22;8630;50.500;12.164;2022-08-21T00:00:08;19.60;99.90
17027;DHT22;8630;50.500;12.164;2022-08-21T00:02:44;19.60;99.90
17027;DHT22;8630;50.500;12.164;2022-08-21T00:05:13;19.60;99.90
17027;DHT22;8630;50.500;12.164;2022-08-21T00:07:40;19.50;99.90
17027;DHT22;8630;50.500;12.164;2022-08-21T00:10:09;19.50;99.90
17027;DHT22;8630;50.500;12.164;2022-08-21T00:12:36;19.50;99.90
17027;DHT22;8630;50.500;12.164;2022-08-21T00:15:04;19.50;99.90
17027;DHT22;8630;50.500;12.164;2022-08-21T00:17:32;19.50;99.90
17027;DHT22;8630;50.500;12.164;2022-08-21T00:19:59;19.50;99.90
17027;DHT22;8630;50.500;12.164;2022-08-21T00:22:27;19.40;99.90
17027;DHT22;8630;50.500;12.164;2022-08-21T00:24:54;19.40;99.90
17027;DHT22;8630;50.500;12.164;2022-08-21T00:27:21;19.40;99.90
17027;DHT22;8630;50.500;12.164;2022-08-21T00:29:48;19.40;99.90
17027;DHT22;8630;50.500;12.164;2022-08-21T00:32:20;19.40;99.90
17027;DHT22;8630;50.500;12.164;2022-08-21T00:34:47;19.50;99.90
17027;DHT22;8630;50.500;12.164;2022-08-21T00:37:14;19.50;99.90
17027;DHT22;8630;50.500;12.164;2022-08-21T00:39:42;19.50;99.90
17027;DHT22;8630;50.500;12.164;2022-08-21T00:42:11;19.50;99.90
17027;DHT22;8630;50.500;12.164;2022-08-21T00:44:40;19.50;99.90
17027;DHT22;8630;50.500;12.164;2022-08-21T00:47:07;19.50;99.90
17027;DHT22;8630;50.500;12.164;2022-08-21T00:49:35;19.50;99.90
17027;DHT22;8630;50.500;12.164;2022-08-21T00:52:03;19.50;99.90
17027;DHT22;8630;50.500;12.164;2022-08-21T00:54:32;19.50;99.90
17027;DHT22;8630;50.500;12.164;2022-08-21T00:57:05;19.50;99.90
17027;DHT22;8630;50.500;12.164;2022-08-21T00:59:36;19.50;99.90
17027;DHT22;8630;50.500;12.164;2022-08-21T01:02:05;19.40;99.90
17027;DHT22;8630;50.500;12.164;2022-08-21T01:04:34;19.40;99.90
17027;DHT22;8630;50.500;12.164;2022-08-21T01:07:02;19.30;99.90
17027;DHT22;8630;50.500;12.164;2022-08-21T01:09:29;19.30;99.90
17027;DHT22;8630;50.500;12.164;2022-08-21T01:11:56;19.30;99.90
17027;DHT22;8630;50.500;12.164;2022-08-21T01:14:28;19.40;99.90
17027;DHT22;8630;50.500;12.164;2022-08-21T01:16:56;19.40;99.90
17027;DHT22;8630;50.500;12.164;2022-08-21T01:19:25;19.40;99.90
17027;DHT22;8630;50.500;12.164;2022-08-21T01:21:53;19.40;99.90
17027;DHT22;8630;50.500;12.164;2022-08-21T01:24:20;19.40;99.90
17027;DHT22;8630;50.500;12.164;2022-08-21T01:26:49;19.40;99.90
17027;DHT22;8630;50.500;12.164;2022-08-21T01:29:26;19.50;99.90
17027;DHT22;8630;50.500;12.164;2022-08-21T01:31:55;19.50;99.90
17027;DHT22;8630;50.500;12.164;2022-08-21T01:34:25;19.50;99.90
17027;DHT22;8630;50.500;12.164;2022-08-21T01:36:53;19.50;99.90
17027;DHT22;8630;50.500;12.164;2022-08-21T01:39:22;19.50;99.90
17027;DHT22;8630;50.500;12.164;2022-08-21T01:41:49;19.50;99.90
17027;DHT22;8630;50.500;12.164;2022-08-21T01:44:16;19.50;99.90
17027;DHT22;8630;50.500;12.164;2022-08-21T01:46:46;19.40;99.90
17027;DHT22;8630;50.500;12.164;2022-08-21T01:49:13;19.40;99.90
17027;DHT22;8630;50.500;12.164;2022-08-21T01:51:41;19.30;99.90
17027;DHT22;8630;50.500;12.164;2022-08-21T01:54:09;19.30;99.90
17027;DHT22;8630;50.500;12.164;2022-08-21T01:56:38;19.30;99.90
17027;DHT22;8630;50.500;12.164;2022-08-21T01:59:06;19.30;99.90
17027;DHT22;8630;50.500;12.164;2022-08-21T02:01:33;19.30;99.90
17027;DHT22;8630;50.500;12.164;2022-08-21T02:04:00;19.30;99.90
17027;DHT22;8630;50.500;12.164;2022-08-21T02:06:27;19.30;99.90
17027;DHT22;8630;50.500;12.164;2022-08-21T02:08:54;19.30;99.90
17027;DHT22;8630;50.500;12.164;2022-08-21T02:11:22;19.30;99.90
17027;DHT22;8630;50.500;12.164;2022-08-21T02:13:49;19.30;99.90
17027;DHT22;8630;50.500;12.164;2022-08-21T02:16:16;19.30;99.90
17027;DHT22;8630;50.500;12.164;2022-08-21T02:18:43;19.30;99.90
17027;DHT22;8630;50.500;12.164;2022-08-21T02:21:10;19.30;99.90
17027;DHT22;8630;50.500;12.164;2022-08-21T02:23:37;19.30;99.90
17027;DHT22;8630;50.500;12.164;2022-08-21T02:26:06;19.40;99.90
17027;DHT22;8630;50.500;12.164;2022-08-21T02:28:36;19.40;99.90
17027;DHT22;8630;50.500;12.164;2022-08-21T02:31:04;19.40;99.90
17027;DHT22;8630;50.500;12.164;2022-08-21T02:33:32;19.50;99.90
17027;DHT22;8630;50.500;12.164;2022-08-21T02:36:00;19.50;99.90
17027;DHT22;8630;50.500;12.164;2022-08-21T02:38:30;19.50;99.90
17027;DHT22;8630;50.500;12.164;2022-08-21T02:40:59;19.50;99.90
17027;DHT22;8630;50.500;12.164;2022-08-21T02:43:27;19.50;99.90
17027;DHT22;8630;50.500;12.164;2022-08-21T02:45:57;19.50;99.90
17027;DHT22;8630;50.500;12.164;2022-08-21T02:48:26;19.50;99.90
17027;DHT22;8630;50.500;12.164;2022-08-21T02:50:56;19.50;99.90
17027;DHT22;8630;50.500;12.164;2022-08-21T02:53:24;19.50;99.90
17027;DHT22;8630;50.500;12.164;2022-08-21T02:55:51;19.50;99.90
17027;DHT22;8630;50.500;12.164;2022-08-21T02:58:22;19.60;99.90
17027;DHT22;8630;50.500;12.164;2022-08-21T03:00:49;19.60;99.90
17027;DHT22;8630;50.500;12.164;2022-08-21T03:03:18;19.60;99.90
17027;DHT22;8630;50.500;12.164;2022-08-21T03:05:47;19.70;99.90
17027;DHT22;8630;50.500;12.164;2022-08-21T03:08:15;19.70;99.90
17027;DHT22;8630;50.500;12.164;2022-08-21T03:10:44;19.70;99.90
17027;DHT22;8630;50.500;12.164;2022-08-21T03:13:12;19.70;99.90
17027;DHT22;8630;50.500;12.164;2022-08-21T03:15:40;19.70;99.90
17027;DHT22;8630;50.500;12.164;2022-08-21T03:18:08;19.80;99.90
17027;DHT22;8630;50.500;12.164;2022-08-21T03:20:38;19.70;99.90
17027;DHT22;8630;50.500;12.164;2022-08-21T03:23:06;19.80;99.90
17027;DHT22;8630;50.500;12.164;2022-08-21T03:25:35;19.80;99.90
17027;DHT22;8630;50.500;12.164;2022-08-21T03:28:03;19.80;99.90
17027;DHT22;8630;50.500;12.164;2022-08-21T03:30:32;19.80;99.90
17027;DHT22;8630;50.500;12.164;2022-08-21T03:32:59;19.80;99.90
17027;DHT22;8630;50.500;12.164;2022-08-21T03:35:27;19.80;99.90
17027;DHT22;8630;50.500;12.164;2022-08-21T03:37:56;19.90;99.90
17027;DHT22;8630;50.500;12.164;2022-08-21T03:40:23;19.90;99.90
17027;DHT22;8630;50.500;12.164;2022-08-21T03:42:51;19.90;99.90
17027;DHT22;8630;50.500;12.164;2022-08-21T03:45:19;19.90;99.90
17027;DHT22;8630;50.500;12.164;2022-08-21T03:47:56;19.90;99.90
17027;DHT22;8630;50.500;12.164;2022-08-21T03:50:24;19.90;99.90
17027;DHT22;8630;50.500;12.164;2022-08-21T03:52:52;19.90;99.90
17027;DHT22;8630;50.500;12.164;2022-08-21T03:55:20;19.90;99.90
17027;DHT22;8630;50.500;12.164;2022-08-21T03:57:47;19.90;99.90
17027;DHT22;8630;50.500;12.164;2022-08-21T04:00:17;19.90;99.90
17027;DHT22;8630;50.500;12.164;2022-08-21T04:02:46;19.90;99.90
17027;DHT22;8630;50.500;12.164;2022-08-21T04:05:15;19.90;99.90
17027;DHT22;8630;50.500;12.164;2022-08-21T04:07:53;19.90;99.90
17027;DHT22;8630;50.500;12.164;2022-08-21T04:10:21;19.90;99.90
17027;DHT22;8630;50.500;12.164;2022-08-21T04:12:49;19.90;99.90
17027;DHT22;8630;50.500;12.164;2022-08-21T04:15:16;19.90;99.90
17027;DHT22;8630;50.500;12.164;2022-08-21T04:17:43;19.90;99.90
17027;DHT22;8630;50.500;12.164;2022-08-21T04:20:10;19.90;99.90
17027;DHT22;8630;50.500;12.164;2022-08-21T04:22:40;19.90;99.90
17027;DHT22;8630;50.500;12.164;2022-08-21T04:25:07;19.90;99.90
17027;DHT22;8630;50.500;12.164;2022-08-21T04:27:36;19.90;99.90
17027;DHT22;8630;50.500;12.164;2022-08-21T04:30:06;19.90;99.90
17027;DHT22;8630;50.500;12.164;2022-08-21T04:32:34;19.90;99.90
17027;DHT22;8630;50.500;12.164;2022-08-21T04:35:04;19.90;99.90
17027;DHT22;8630;50.500;12.164;2022-08-21T04:37:31;19.90;99.90
17027;DHT22;8630;50.500;12.164;2022-08-21T04:39:58;19.90;99.90
17027;DHT22;8630;50.500;12.164;2022-08-21T04:42:25;19.90;99.90
17027;DHT22;8630;50.500;12.164;2022-08-21T04:44:54;19.90;99.90
17027;DHT22;8630;50.500;12.164;2022-08-21T04:47:21;19.90;99.90
17027;DHT22;8630;50.500;12.164;2022-08-21T04:49:49;19.90;99.90
17027;DHT22;8630;50.500;12.164;2022-08-21T04:52:20;19.90;99.90
17027;DHT22;8630;50.500;12.164;2022-08-21T04:54:48;19.90;99.90
17027;DHT22;8630;50.500;12.164;2022-08-21T04:57:17;19.90;99.90
17027;DHT22;8630;50.500;12.164;2022-08-21T04:59:47;19.80;99.90
17027;DHT22;8630;50.500;12.164;2022-08-21T05:02:16;19.90;99.90
17027;DHT22;8630;50.500;12.164;2022-08-21T05:04:46;19.80;99.90
17027;DHT22;8630;50.500;12.164;2022-08-21T05:07:19;19.80;99.90
17027;DHT22;8630;50.500;12.164;2022-08-21T05:09:47;19.80;99.90
17027;DHT22;8630;50.500;12.164;2022-08-21T05:12:14;19.80;99.90
17027;DHT22;8630;50.500;12.164;2022-08-21T05:14:41;19.90;99.90
17027;DHT22;8630;50.500;12.164;2022-08-21T05:17:08;19.90;99.90
17027;DHT22;8630;50.500;12.164;2022-08-21T05:19:37;19.90;99.90
17027;DHT22;8630;50.500;12.164;2022-08-21T05:22:04;19.90;99.90
17027;DHT22;8630;50.500;12.164;2022-08-21T05:24:31;19.90;99.90
17027;DHT22;8630;50.500;12.164;2022-08-21T05:26:59;19.90;99.90
17027;DHT22;8630;50.500;12.164;2022-08-21T05:29:26;20.00;99.90
17027;DHT22;8630;50.500;12.164;2022-08-21T05:31:54;20.00;99.90
17027;DHT22;8630;50.500;12.164;2022-08-21T05:34:23;20.00;99.90
17027;DHT22;8630;50.500;12.164;2022-08-21T05:36:51;20.10;99.90
17027;DHT22;8630;50.500;12.164;2022-08-21T05:39:18;20.10;99.90
17027;DHT22;8630;50.500;12.164;2022-08-21T05:41:47;20.10;99.90
17027;DHT22;8630;50.500;12.164;2022-08-21T05:44:14;20.20;99.90
17027;DHT22;8630;50.500;12.164;2022-08-21T05:46:41;20.20;99.90
17027;DHT22;8630;50.500;12.164;2022-08-21T05:49:09;20.30;99.90
17027;DHT22;8630;50.500;12.164;2022-08-21T05:51:38;20.40;99.90
17027;DHT22;8630;50.500;12.164;2022-08-21T05:54:07;20.40;99.90
17027;DHT22;8630;50.500;12.164;2022-08-21T05:56:34;20.50;99.90
17027;DHT22;8630;50.500;12.164;2022-08-21T05:59:03;20.60;99.90
17027;DHT22;8630;50.500;12.164;2022-08-21T06:01:30;20.60;99.90
17027;DHT22;8630;50.500;12.164;2022-08-21T06:03:57;20.70;99.90
17027;DHT22;8630;50.500;12.164;2022-08-21T06:06:24;20.80;99.90
17027;DHT22;8630;50.500;12.164;2022-08-21T06:08:51;20.80;99.90
17027;DHT22;8630;50.500;12.164;2022-08-21T06:11:20;20.80;99.90
17027;DHT22;8630;50.500;12.164;2022-08-21T06:13:47;20.90;99.90
17027;DHT22;8630;50.500;12.164;2022-08-21T06:16:15;20.90;99.90
17027;DHT22;8630;50.500;12.164;2022-08-21T06:18:43;21.00;99.90
17027;DHT22;8630;50.500;12.164;2022-08-21T06:21:12;21.10;99.90
17027;DHT22;8630;50.500;12.164;2022-08-21T06:23:39;21.10;99.90
17027;DHT22;8630;50.500;12.164;2022-08-21T06:26:08;21.10;99.90
17027;DHT22;8630;50.500;12.164;2022-08-21T06:28:36;21.10;99.90
17027;DHT22;8630;50.500;12.164;2022-08-21T06:31:10;21.10;99.90
17027;DHT22;8630;50.500;12.164;2022-08-21T06:33:37;21.10;99.90
17027;DHT22;8630;50.500;12.164;2022-08-21T06:36:05;21.10;99.90
17027;DHT22;8630;50.500;12.164;2022-08-21T06:38:32;21.10;99.90
17027;DHT22;8630;50.500;12.164;2022-08-21T06:40:59;21.10;99.90
17027;DHT22;8630;50.500;12.164;2022-08-21T06:43:27;21.10;99.90
17027;DHT22;8630;50.500;12.164;2022-08-21T06:45:55;21.20;99.90
17027;DHT22;8630;50.500;12.164;2022-08-21T06:48:23;21.30;99.90
17027;DHT22;8630;50.500;12.164;2022-08-21T06:50:50;21.30;99.90
17027;DHT22;8630;50.500;12.164;2022-08-21T06:53:19;21.30;99.90
17027;DHT22;8630;50.500;12.164;2022-08-21T06:55:46;21.40;99.90
17027;DHT22;8630;50.500;12.164;2022-08-21T06:58:14;21.40;99.90
17027;DHT22;8630;50.500;12.164;2022-08-21T07:00:45;21.40;99.90
17027;DHT22;8630;50.500;12.164;2022-08-21T07:03:25;21.40;99.90
17027;DHT22;8630;50.500;12.164;2022-08-21T07:05:52;21.40;99.90
17027;DHT22;8630;50.500;12.164;2022-08-21T07:08:20;21.30;99.90
17027;DHT22;8630;50.500;12.164;2022-08-21T07:10:48;21.30;99.90
17027;DHT22;8630;50.500;12.164;2022-08-21T07:13:16;21.30;99.90
17027;DHT22;8630;50.500;12.164;2022-08-21T07:15:44;21.30;99.90
17027;DHT22;8630;50.500;12.164;2022-08-21T07:18:12;21.30;99.90
17027;DHT22;8630;50.500;12.164;2022-08-21T07:20:41;21.40;99.90
17027;DHT22;8630;50.500;12.164;2022-08-21T07:23:11;21.70;99.90
17027;DHT22;8630;50.500;12.164;2022-08-21T07:25:39;21.90;99.90
17027;DHT22;8630;50.500;12.164;2022-08-21T07:28:06;22.20;99.90
17027;DHT22;8630;50.500;12.164;2022-08-21T07:30:33;22.40;99.90
17027;DHT22;8630;50.500;12.164;2022-08-21T07:33:00;22.50;99.90
17027;DHT22;8630;50.500;12.164;2022-08-21T07:35:27;22.70;99.90
17027;DHT22;8630;50.500;12.164;2022-08-21T07:37:56;22.80;99.90
17027;DHT22;8630;50.500;12.164;2022-08-21T07:40:22;23.00;99.90
17027;DHT22;8630;50.500;12.164;2022-08-21T07:42:50;23.10;99.90
17027;DHT22;8630;50.500;12.164;2022-08-21T07:45:19;23.20;99.90
17027;DHT22;8630;50.500;12.164;2022-08-21T07:47:46;23.30;99.90
17027;DHT22;8630;50.500;12.164;2022-08-21T07:50:13;23.50;99.90
17027;DHT22;8630;50.500;12.164;2022-08-21T07:52:41;23.70;99.90
17027;DHT22;8630;50.500;12.164;2022-08-21T07:55:12;23.80;99.90
17027;DHT22;8630;50.500;12.164;2022-08-21T07:57:40;23.90;99.90
17027;DHT22;8630;50.500;12.164;2022-08-21T08:00:10;24.10;99.90
17027;DHT22;8630;50.500;12.164;2022-08-21T08:02:40;24.20;99.90
17027;DHT22;8630;50.500;12.164;2022-08-21T08:05:11;24.20;99.90
17027;DHT22;8630;50.500;12.164;2022-08-21T08:07:38;24.30;99.90
17027;DHT22;8630;50.500;12.164;2022-08-21T08:10:06;24.40;99.90
17027;DHT22;8630;50.500;12.164;2022-08-21T08:12:35;24.40;99.90
17027;DHT22;8630;50.500;12.164;2022-08-21T08:15:05;24.60;99.90
17027;DHT22;8630;50.500;12.164;2022-08-21T08:17:32;24.70;99.90
17027;DHT22;8630;50.500;12.164;2022-08-21T08:19:59;24.50;99.90
17027;DHT22;8630;50.500;12.164;2022-08-21T08:22:28;24.40;99.90
17027;DHT22;8630;50.500;12.164;2022-08-21T08:24:55;24.20;99.90
17027;DHT22;8630;50.500;12.164;2022-08-21T08:27:22;24.10;99.90
17027;DHT22;8630;50.500;12.164;2022-08-21T08:29:51;24.10;99.90
17027;DHT22;8630;50.500;12.164;2022-08-21T08:32:18;24.10;99.90
17027;DHT22;8630;50.500;12.164;2022-08-21T08:34:45;24.10;99.90
17027;DHT22;8630;50.500;12.164;2022-08-21T08:37:14;24.20;99.90
17027;DHT22;8630;50.500;12.164;2022-08-21T08:39:42;24.30;99.90
17027;DHT22;8630;50.500;12.164;2022-08-21T08:42:12;24.30;99.90
17027;DHT22;8630;50.500;12.164;2022-08-21T08:44:40;24.30;99.90
17027;DHT22;8630;50.500;12.164;2022-08-21T08:47:10;24.30;99.90
17027;DHT22;8630;50.500;12.164;2022-08-21T08:49:42;24.50;99.90
17027;DHT22;8630;50.500;12.164;2022-08-21T08:52:20;24.60;99.90
17027;DHT22;8630;50.500;12.164;2022-08-21T08:54:55;24.60;99.90
17027;DHT22;8630;50.500;12.164;2022-08-21T08:57:25;24.60;99.90
17027;DHT22;8630;50.500;12.164;2022-08-21T08:59:55;24.50;99.90
17027;DHT22;8630;50.500;12.164;2022-08-21T09:02:24;24.40;99.90
17027;DHT22;8630;50.500;12.164;2022-08-21T09:04:54;24.30;99.90
17027;DHT22;8630;50.500;12.164;2022-08-21T09:07:28;24.20;99.90
17027;DHT22;8630;50.500;12.164;2022-08-21T09:10:06;24.20;99.90
17027;DHT22;8630;50.500;12.164;2022-08-21T09:12:43;24.30;99.90
17027;DHT22;8630;50.500;12.164;2022-08-21T09:15:19;24.30;99.90
17027;DHT22;8630;50.500;12.164;2022-08-21T09:18:16;24.30;99.90
17027;DHT22;8630;50.500;12.164;2022-08-21T09:20:52;24.30;99.90
17027;DHT22;8630;50.500;12.164;2022-08-21T09:23:30;24.40;99.90
17027;DHT22;8630;50.500;12.164;2022-08-21T09:26:06;24.50;99.90
17027;DHT22;8630;50.500;12.164;2022-08-21T09:28:34;24.50;99.90
17027;DHT22;8630;50.500;12.164;2022-08-21T09:31:04;24.50;99.90
17027;DHT22;8630;50.500;12.164;2022-08-21T09:33:33;24.60;99.90
17027;DHT22;8630;50.500;12.164;2022-08-21T09:36:00;24.70;99.90
17027;DHT22;8630;50.500;12.164;2022-08-21T09:38:30;25.00;99.90
17027;DHT22;8630;50.500;12.164;2022-08-21T09:41:01;25.10;99.90
17027;DHT22;8630;50.500;12.164;2022-08-21T09:43:29;25.20;99.90
17027;DHT22;8630;50.500;12.164;2022-08-21T09:46:20;25.50;99.90
17027;DHT22;8630;50.500;12.164;2022-08-21T09:48:50;25.60;99.90
17027;DHT22;8630;50.500;12.164;2022-08-21T09:51:20;25.60;99.90
17027;DHT22;8630;50.500;12.164;2022-08-21T09:53:52;25.50;99.90
17027;DHT22;8630;50.500;12.164;2022-08-21T09:56:25;25.60;99.60
17027;DHT22;8630;50.500;12.164;2022-08-21T09:59:16;25.50;99.30
17027;DHT22;8630;50.500;12.164;2022-08-21T10:01:44;25.40;99.10
17027;DHT22;8630;50.500;12.164;2022-08-21T10:04:13;25.20;99.40
17027;DHT22;8630;50.500;12.164;2022-08-21T10:06:40;25.20;99.60
17027;DHT22;8630;50.500;12.164;2022-08-21T10:09:11;25.30;99.80
17027;DHT22;8630;50.500;12.164;2022-08-21T10:11:39;25.50;99.80
17027;DHT22;8630;50.500;12.164;2022-08-21T10:14:27;25.70;99.30
17027;DHT22;8630;50.500;12.164;2022-08-21T10:17:04;25.90;98.70
17027;DHT22;8630;50.500;12.164;2022-08-21T10:19:39;25.90;97.90
17027;DHT22;8630;50.500;12.164;2022-08-21T10:22:23;25.90;97.40
17027;DHT22;8630;50.500;12.164;2022-08-21T10:25:02;25.90;97.60
17027;DHT22;8630;50.500;12.164;2022-08-21T10:27:39;25.80;97.30
17027;DHT22;8630;50.500;12.164;2022-08-21T10:30:13;25.80;97.80
17027;DHT22;8630;50.500;12.164;2022-08-21T10:33:01;25.70;97.80
17027;DHT22;8630;50.500;12.164;2022-08-21T10:35:36;25.40;97.60
17027;DHT22;8630;50.500;12.164;2022-08-21T10:41:35;25.30;98.20
17027;DHT22;8630;50.500;12.164;2022-08-21T10:44:13;25.40;97.80
17027;DHT22;8630;50.500;12.164;2022-08-21T10:46:56;25.60;97.90
17027;DHT22;8630;50.500;12.164;2022-08-21T10:49:38;25.80;98.00
17027;DHT22;8630;50.500;12.164;2022-08-21T10:52:30;25.90;97.90
17027;DHT22;8630;50.500;12.164;2022-08-21T10:55:05;25.80;97.60
17027;DHT22;8630;50.500;12.164;2022-08-21T10:57:38;25.60;97.80
17027;DHT22;8630;50.500;12.164;2022-08-21T11:00:09;25.40;97.90
17027;DHT22;8630;50.500;12.164;2022-08-21T11:02:40;25.40;97.90
17027;DHT22;8630;50.500;12.164;2022-08-21T11:05:12;25.30;97.80
17027;DHT22;8630;50.500;12.164;2022-08-21T11:07:47;25.00;97.40
17027;DHT22;8630;50.500;12.164;2022-08-21T11:10:18;24.80;97.90
17027;DHT22;8630;50.500;12.164;2022-08-21T11:12:50;24.60;98.10
17027;DHT22;8630;50.500;12.164;2022-08-21T11:15:29;24.70;98.20
17027;DHT22;8630;50.500;12.164;2022-08-21T11:18:03;24.80;98.00
17027;DHT22;8630;50.500;12.164;2022-08-21T11:20:42;25.00;97.80
17027;DHT22;8630;50.500;12.164;2022-08-21T11:23:17;25.30;97.50
17027;DHT22;8630;50.500;12.164;2022-08-21T11:25:49;25.50;97.60
17027;DHT22;8630;50.500;12.164;2022-08-21T11:28:23;25.60;97.60
17027;DHT22;8630;50.500;12.164;2022-08-21T11:30:59;25.50;97.30
17027;DHT22;8630;50.500;12.164;2022-08-21T11:33:40;25.30;97.30
17027;DHT22;8630;50.500;12.164;2022-08-21T11:36:19;25.30;97.40
17027;DHT22;8630;50.500;12.164;2022-08-21T11:38:55;25.40;97.30
17027;DHT22;8630;50.500;12.164;2022-08-21T11:41:28;25.50;97.10
17027;DHT22;8630;50.500;12.164;2022-08-21T11:44:06;25.70;96.80
17027;DHT22;8630;50.500;12.164;2022-08-21T11:46:40;25.80;96.30
17027;DHT22;8630;50.500;12.164;2022-08-21T11:52:15;25.70;95.70
17027;DHT22;8630;50.500;12.164;2022-08-21T11:54:46;25.40;96.00
17027;DHT22;8630;50.500;12.164;2022-08-21T11:57:20;25.40;96.30
17027;DHT22;8630;50.500;12.164;2022-08-21T11:59:55;25.50;96.30
17027;DHT22;8630;50.500;12.164;2022-08-21T12:02:29;25.70;96.10
17027;DHT22;8630;50.500;12.164;2022-08-21T12:05:02;25.90;95.80
17027;DHT22;8630;50.500;12.164;2022-08-21T12:07:33;26.10;95.50
17027;DHT22;8630;50.500;12.164;2022-08-21T12:10:04;26.00;94.60
17027;DHT22;8630;50.500;12.164;2022-08-21T12:12:33;25.80;94.60
17027;DHT22;8630;50.500;12.164;2022-08-21T12:15:24;25.50;94.80
17027;DHT22;8630;50.500;12.164;2022-08-21T12:17:57;25.30;94.90
17027;DHT22;8630;50.500;12.164;2022-08-21T12:20:43;25.10;95.40
17027;DHT22;8630;50.500;12.164;2022-08-21T12:23:25;25.10;95.30
17027;DHT22;8630;50.500;12.164;2022-08-21T12:26:24;25.10;95.30
17027;DHT22;8630;50.500;12.164;2022-08-21T12:29:02;25.20;95.00
17027;DHT22;8630;50.500;12.164;2022-08-21T12:31:30;25.20;95.30
17027;DHT22;8630;50.500;12.164;2022-08-21T12:33:59;25.30;95.30
17027;DHT22;8630;50.500;12.164;2022-08-21T12:36:39;25.40;94.80
17027;DHT22;8630;50.500;12.164;2022-08-21T12:39:13;25.40;94.30
17027;DHT22;8630;50.500;12.164;2022-08-21T12:41:47;25.50;94.40
17027;DHT22;8630;50.500;12.164;2022-08-21T12:44:17;25.50;94.20
17027;DHT22;8630;50.500;12.164;2022-08-21T12:46:50;25.50;94.20
17027;DHT22;8630;50.500;12.164;2022-08-21T12:49:25;25.50;94.30
17027;DHT22;8630;50.500;12.164;2022-08-21T12:51:56;25.40;94.20
17027;DHT22;8630;50.500;12.164;2022-08-21T12:54:26;25.20;94.30
17027;DHT22;8630;50.500;12.164;2022-08-21T12:56:59;25.10;94.00
17027;DHT22;8630;50.500;12.164;2022-08-21T12:59:27;25.10;94.20
17027;DHT22;8630;50.500;12.164;2022-08-21T13:01:55;25.10;94.00
17027;DHT22;8630;50.500;12.164;2022-08-21T13:04:27;25.10;94.10
17027;DHT22;8630;50.500;12.164;2022-08-21T13:06:59;25.20;93.70
17027;DHT22;8630;50.500;12.164;2022-08-21T13:09:28;25.30;93.50
17027;DHT22;8630;50.500;12.164;2022-08-21T13:12:00;25.50;93.50
17027;DHT22;8630;50.500;12.164;2022-08-21T13:14:30;25.80;93.10
17027;DHT22;8630;50.500;12.164;2022-08-21T13:17:00;26.00;92.10
17027;DHT22;8630;50.500;12.164;2022-08-21T13:19:32;26.10;92.00
17027;DHT22;8630;50.500;12.164;2022-08-21T13:22:00;26.20;91.50
17027;DHT22;8630;50.500;12.164;2022-08-21T13:24:30;26.30;91.50
17027;DHT22;8630;50.500;12.164;2022-08-21T13:26:58;26.40;91.40
17027;DHT22;8630;50.500;12.164;2022-08-21T13:29:29;26.50;91.00
17027;DHT22;8630;50.500;12.164;2022-08-21T13:32:01;26.40;90.40
17027;DHT22;8630;50.500;12.164;2022-08-21T13:34:35;26.30;90.30
17027;DHT22;8630;50.500;12.164;2022-08-21T13:37:05;26.20;90.50
17027;DHT22;8630;50.500;12.164;2022-08-21T13:39:32;26.00;90.40
17027;DHT22;8630;50.500;12.164;2022-08-21T13:42:03;25.90;91.00
17027;DHT22;8630;50.500;12.164;2022-08-21T13:44:35;25.90;91.50
17027;DHT22;8630;50.500;12.164;2022-08-21T13:47:05;25.90;91.80
17027;DHT22;8630;50.500;12.164;2022-08-21T13:49:35;25.90;91.20
17027;DHT22;8630;50.500;12.164;2022-08-21T13:52:04;25.90;91.10
17027;DHT22;8630;50.500;12.164;2022-08-21T13:54:42;26.00;90.70
17027;DHT22;8630;50.500;12.164;2022-08-21T13:57:27;26.10;90.40
17027;DHT22;8630;50.500;12.164;2022-08-21T14:00:11;26.20;90.60
17027;DHT22;8630;50.500;12.164;2022-08-21T14:02:41;26.30;90.20
17027;DHT22;8630;50.500;12.164;2022-08-21T14:05:15;26.20;90.00
17027;DHT22;8630;50.500;12.164;2022-08-21T14:07:43;26.20;90.20
17027;DHT22;8630;50.500;12.164;2022-08-21T14:10:15;26.00;90.50
17027;DHT22;8630;50.500;12.164;2022-08-21T14:12:50;26.10;90.50
17027;DHT22;8630;50.500;12.164;2022-08-21T14:15:22;26.00;90.50
17027;DHT22;8630;50.500;12.164;2022-08-21T14:17:49;26.00;90.50
17027;DHT22;8630;50.500;12.164;2022-08-21T14:20:27;26.00;90.50
17027;DHT22;8630;50.500;12.164;2022-08-21T14:22:54;25.80;90.80
17027;DHT22;8630;50.500;12.164;2022-08-21T14:25:29;25.70;91.10
17027;DHT22;8630;50.500;12.164;2022-08-21T14:28:12;25.70;91.00
17027;DHT22;8630;50.500;12.164;2022-08-21T14:30:42;25.60;91.20
17027;DHT22;8630;50.500;12.164;2022-08-21T14:33:12;25.60;91.30
17027;DHT22;8630;50.500;12.164;2022-08-21T14:35:40;25.60;91.60
17027;DHT22;8630;50.500;12.164;2022-08-21T14:38:12;25.50;91.20
17027;DHT22;8630;50.500;12.164;2022-08-21T14:40:40;25.40;91.40
17027;DHT22;8630;50.500;12.164;2022-08-21T14:43:10;25.30;91.40
17027;DHT22;8630;50.500;12.164;2022-08-21T14:45:37;25.20;91.20
17027;DHT22;8630;50.500;12.164;2022-08-21T14:48:07;25.20;91.40
17027;DHT22;8630;50.500;12.164;2022-08-21T14:50:34;25.20;91.60
17027;DHT22;8630;50.500;12.164;2022-08-21T14:53:01;25.20;91.60
17027;DHT22;8630;50.500;12.164;2022-08-21T14:55:31;25.20;91.70
17027;DHT22;8630;50.500;12.164;2022-08-21T14:58:20;25.20;91.60
17027;DHT22;8630;50.500;12.164;2022-08-21T15:00:50;25.20;91.40
17027;DHT22;8630;50.500;12.164;2022-08-21T15:03:18;25.10;91.60
17027;DHT22;8630;50.500;12.164;2022-08-21T15:05:47;25.00;91.90
17027;DHT22;8630;50.500;12.164;2022-08-21T15:08:15;24.90;92.10
17027;DHT22;8630;50.500;12.164;2022-08-21T15:10:43;24.90;91.90
17027;DHT22;8630;50.500;12.164;2022-08-21T15:13:10;24.90;92.00
17027;DHT22;8630;50.500;12.164;2022-08-21T15:15:43;24.90;92.00
17027;DHT22;8630;50.500;12.164;2022-08-21T15:18:10;24.90;92.30
17027;DHT22;8630;50.500;12.164;2022-08-21T15:20:37;24.90;92.30
17027;DHT22;8630;50.500;12.164;2022-08-21T15:23:05;24.90;92.40
17027;DHT22;8630;50.500;12.164;2022-08-21T15:25:33;25.00;92.40
17027;DHT22;8630;50.500;12.164;2022-08-21T15:28:01;25.10;92.80
17027;DHT22;8630;50.500;12.164;2022-08-21T15:30:30;25.30;92.60
17027;DHT22;8630;50.500;12.164;2022-08-21T15:32:59;25.20;92.10
17027;DHT22;8630;50.500;12.164;2022-08-21T15:35:26;25.20;91.90
17027;DHT22;8630;50.500;12.164;2022-08-21T15:37:53;24.90;91.80
17027;DHT22;8630;50.500;12.164;2022-08-21T15:40:20;24.80;92.00
17027;DHT22;8630;50.500;12.164;2022-08-21T15:42:50;24.70;92.20
17027;DHT22;8630;50.500;12.164;2022-08-21T15:45:33;24.60;92.40
17027;DHT22;8630;50.500;12.164;2022-08-21T15:48:02;24.60;92.50
17027;DHT22;8630;50.500;12.164;2022-08-21T15:50:31;24.40;92.60
17027;DHT22;8630;50.500;12.164;2022-08-21T15:52:58;24.40;92.80
17027;DHT22;8630;50.500;12.164;2022-08-21T15:55:25;24.30;93.10